sensor_id;sensor_type;location;lat;lon;timestamp;P1;durP1;ratioP1;P2;durP2;ratioP2
12308;SDS011;6217;48.150;17.142;2024-03-29T00:03:14;0.45;;;0.40;;
12308;SDS011;6217;48.150;17.142;2024-03-29T00:07:20;0.47;;;0.47;;
12308;SDS011;6217;48.150;17.142;2024-03-29T00:11:26;0.55;;;0.55;;
12308;SDS011;6217;48.150;17.142;2024-03-29T00:15:33;0.60;;;0.50;;
12308;SDS011;6217;48.150;17.142;2024-03-29T00:19:39;0.50;;;0.50;;
12308;SDS011;6217;48.150;17.142;2024-03-29T00:23:45;0.52;;;0.52;;
12308;SDS011;6217;48.150;17.142;2024-03-29T00:27:51;0.50;;;0.50;;
12308;SDS011;6217;48.150;17.142;2024-03-29T00:31:57;0.95;;;0.52;;
12308;SDS011;6217;48.150;17.142;2024-03-29T00:36:03;0.65;;;0.50;;
12308;SDS011;6217;48.150;17.142;2024-03-29T00:40:09;0.52;;;0.50;;
12308;SDS011;6217;48.150;17.142;2024-03-29T00:44:16;0.82;;;0.60;;
12308;SDS011;6217;48.150;17.142;2024-03-29T00:48:22;0.40;;;0.40;;
12308;SDS011;6217;48.150;17.142;2024-03-29T00:52:28;0.82;;;0.82;;
12308;SDS011;6217;48.150;17.142;2024-03-29T00:56:34;0.73;;;0.50;;
12308;SDS011;6217;48.150;17.142;2024-03-29T01:00:39;0.70;;;0.70;;
12308;SDS011;6217;48.150;17.142;2024-03-29T01:04:45;0.43;;;0.40;;
12308;SDS011;6217;48.150;17.142;2024-03-29T01:08:51;1.95;;;0.50;;
12308;SDS011;6217;48.150;17.142;2024-03-29T01:12:57;1.70;;;0.70;;
12308;SDS011;6217;48.150;17.142;2024-03-29T01:17:03;0.60;;;0.50;;
12308;SDS011;6217;48.150;17.142;2024-03-29T01:21:09;1.23;;;0.50;;
12308;SDS011;6217;48.150;17.142;2024-03-29T01:25:15;0.47;;;0.45;;
12308;SDS011;6217;48.150;17.142;2024-03-29T01:29:22;0.60;;;0.60;;
12308;SDS011;6217;48.150;17.142;2024-03-29T01:33:28;0.90;;;0.77;;
12308;SDS011;6217;48.150;17.142;2024-03-29T01:37:37;1.13;;;0.90;;
12308;SDS011;6217;48.150;17.142;2024-03-29T01:41:44;1.05;;;0.90;;
12308;SDS011;6217;48.150;17.142;2024-03-29T01:45:51;1.00;;;0.90;;
12308;SDS011;6217;48.150;17.142;2024-03-29T01:49:59;0.75;;;0.63;;
12308;SDS011;6217;48.150;17.142;2024-03-29T01:54:06;0.68;;;0.68;;
12308;SDS011;6217;48.150;17.142;2024-03-29T01:58:15;0.50;;;0.50;;
12308;SDS011;6217;48.150;17.142;2024-03-29T02:02:22;0.52;;;0.52;;
12308;SDS011;6217;48.150;17.142;2024-03-29T02:06:28;0.52;;;0.52;;
12308;SDS011;6217;48.150;17.142;2024-03-29T02:10:35;0.40;;;0.32;;
12308;SDS011;6217;48.150;17.142;2024-03-29T02:14:41;0.50;;;0.50;;
12308;SDS011;6217;48.150;17.142;2024-03-29T02:18:47;0.50;;;0.50;;
12308;SDS011;6217;48.150;17.142;2024-03-29T02:22:54;0.40;;;0.40;;
12308;SDS011;6217;48.150;17.142;2024-03-29T02:27:03;0.90;;;0.70;;
12308;SDS011;6217;48.150;17.142;2024-03-29T02:31:09;0.63;;;0.60;;
12308;SDS011;6217;48.150;17.142;2024-03-29T02:35:15;0.57;;;0.57;;
12308;SDS011;6217;48.150;17.142;2024-03-29T02:39:21;0.50;;;0.50;;
12308;SDS011;6217;48.150;17.142;2024-03-29T02:43:27;0.55;;;0.55;;
12308;SDS011;6217;48.150;17.142;2024-03-29T02:47:33;0.77;;;0.75;;
12308;SDS011;6217;48.150;17.142;2024-03-29T02:51:39;0.60;;;0.60;;
12308;SDS011;6217;48.150;17.142;2024-03-29T02:55:45;0.68;;;0.68;;
12308;SDS011;6217;48.150;17.142;2024-03-29T02:59:51;0.60;;;0.60;;
12308;SDS011;6217;48.150;17.142;2024-03-29T03:03:57;0.70;;;0.70;;
12308;SDS011;6217;48.150;17.142;2024-03-29T03:08:03;0.50;;;0.50;;
12308;SDS011;6217;48.150;17.142;2024-03-29T03:12:28;0.57;;;0.57;;
12308;SDS011;6217;48.150;17.142;2024-03-29T03:16:35;0.98;;;0.70;;
12308;SDS011;6217;48.150;17.142;2024-03-29T03:20:41;0.77;;;0.63;;
12308;SDS011;6217;48.150;17.142;2024-03-29T03:24:47;0.98;;;0.88;;
12308;SDS011;6217;48.150;17.142;2024-03-29T03:28:53;0.70;;;0.70;;
12308;SDS011;6217;48.150;17.142;2024-03-29T03:32:59;0.60;;;0.60;;
12308;SDS011;6217;48.150;17.142;2024-03-29T03:37:05;0.95;;;0.70;;
12308;SDS011;6217;48.150;17.142;2024-03-29T03:41:10;0.70;;;0.70;;
12308;SDS011;6217;48.150;17.142;2024-03-29T03:45:17;0.80;;;0.80;;
12308;SDS011;6217;48.150;17.142;2024-03-29T03:49:23;1.80;;;0.77;;
12308;SDS011;6217;48.150;17.142;2024-03-29T03:53:29;1.15;;;0.90;;
12308;SDS011;6217;48.150;17.142;2024-03-29T03:57:35;1.35;;;1.05;;
12308;SDS011;6217;48.150;17.142;2024-03-29T04:01:41;0.80;;;0.80;;
12308;SDS011;6217;48.150;17.142;2024-03-29T04:05:47;1.95;;;1.00;;
12308;SDS011;6217;48.150;17.142;2024-03-29T04:09:53;2.55;;;0.90;;
12308;SDS011;6217;48.150;17.142;2024-03-29T04:13:59;1.27;;;1.00;;
12308;SDS011;6217;48.150;17.142;2024-03-29T04:18:05;1.33;;;1.00;;
12308;SDS011;6217;48.150;17.142;2024-03-29T04:22:11;1.50;;;1.13;;
12308;SDS011;6217;48.150;17.142;2024-03-29T04:26:17;1.65;;;1.55;;
12308;SDS011;6217;48.150;17.142;2024-03-29T04:30:24;1.85;;;1.48;;
12308;SDS011;6217;48.150;17.142;2024-03-29T04:34:30;1.70;;;1.58;;
12308;SDS011;6217;48.150;17.142;2024-03-29T04:38:36;2.33;;;1.75;;
12308;SDS011;6217;48.150;17.142;2024-03-29T04:42:41;1.42;;;1.30;;
12308;SDS011;6217;48.150;17.142;2024-03-29T04:46:48;4.75;;;1.80;;
12308;SDS011;6217;48.150;17.142;2024-03-29T04:50:55;2.40;;;1.50;;
12308;SDS011;6217;48.150;17.142;2024-03-29T04:55:01;2.47;;;1.65;;
12308;SDS011;6217;48.150;17.142;2024-03-29T04:59:07;3.35;;;2.20;;
12308;SDS011;6217;48.150;17.142;2024-03-29T05:03:18;3.17;;;1.92;;
12308;SDS011;6217;48.150;17.142;2024-03-29T05:07:25;3.45;;;1.90;;
12308;SDS011;6217;48.150;17.142;2024-03-29T05:11:32;2.17;;;1.98;;
12308;SDS011;6217;48.150;17.142;2024-03-29T05:15:38;2.55;;;1.98;;
12308;SDS011;6217;48.150;17.142;2024-03-29T05:19:44;3.17;;;2.03;;
12308;SDS011;6217;48.150;17.142;2024-03-29T05:23:49;3.42;;;2.10;;
12308;SDS011;6217;48.150;17.142;2024-03-29T05:27:56;2.83;;;2.00;;
12308;SDS011;6217;48.150;17.142;2024-03-29T05:32:02;2.22;;;2.03;;
12308;SDS011;6217;48.150;17.142;2024-03-29T05:36:09;3.42;;;2.47;;
12308;SDS011;6217;48.150;17.142;2024-03-29T05:40:17;3.47;;;2.17;;
12308;SDS011;6217;48.150;17.142;2024-03-29T05:44:23;2.83;;;2.50;;
12308;SDS011;6217;48.150;17.142;2024-03-29T05:48:29;3.95;;;2.28;;
12308;SDS011;6217;48.150;17.142;2024-03-29T05:52:35;2.88;;;2.67;;
12308;SDS011;6217;48.150;17.142;2024-03-29T05:56:41;2.85;;;2.65;;
12308;SDS011;6217;48.150;17.142;2024-03-29T06:00:48;2.85;;;2.65;;
12308;SDS011;6217;48.150;17.142;2024-03-29T06:04:54;2.63;;;2.42;;
12308;SDS011;6217;48.150;17.142;2024-03-29T06:09:00;2.13;;;1.73;;
12308;SDS011;6217;48.150;17.142;2024-03-29T06:13:06;2.15;;;1.90;;
12308;SDS011;6217;48.150;17.142;2024-03-29T06:17:13;1.73;;;1.63;;
12308;SDS011;6217;48.150;17.142;2024-03-29T06:21:27;1.65;;;1.50;;
12308;SDS011;6217;48.150;17.142;2024-03-29T06:25:33;1.58;;;1.48;;
12308;SDS011;6217;48.150;17.142;2024-03-29T06:29:39;2.28;;;1.42;;
12308;SDS011;6217;48.150;17.142;2024-03-29T06:33:45;1.98;;;1.30;;
12308;SDS011;6217;48.150;17.142;2024-03-29T06:37:51;1.30;;;1.20;;
12308;SDS011;6217;48.150;17.142;2024-03-29T06:41:57;1.30;;;1.20;;
12308;SDS011;6217;48.150;17.142;2024-03-29T06:46:03;1.30;;;1.10;;
12308;SDS011;6217;48.150;17.142;2024-03-29T07:58:26;0.38;;;0.30;;
12308;SDS011;6217;48.150;17.142;2024-03-29T08:02:32;0.30;;;0.30;;
12308;SDS011;6217;48.150;17.142;2024-03-29T08:06:38;0.38;;;0.38;;
12308;SDS011;6217;48.150;17.142;2024-03-29T08:10:44;0.55;;;0.40;;
12308;SDS011;6217;48.150;17.142;2024-03-29T08:14:50;0.38;;;0.38;;
12308;SDS011;6217;48.150;17.142;2024-03-29T08:18:56;1.58;;;0.40;;
12308;SDS011;6217;48.150;17.142;2024-03-29T08:23:03;0.60;;;0.30;;
12308;SDS011;6217;48.150;17.142;2024-03-29T08:27:09;1.33;;;0.40;;
12308;SDS011;6217;48.150;17.142;2024-03-29T08:31:15;1.27;;;0.38;;
12308;SDS011;6217;48.150;17.142;2024-03-29T08:35:21;0.60;;;0.40;;
12308;SDS011;6217;48.150;17.142;2024-03-29T08:39:27;0.50;;;0.50;;
12308;SDS011;6217;48.150;17.142;2024-03-29T08:43:34;0.20;;;0.20;;
12308;SDS011;6217;48.150;17.142;2024-03-29T08:47:40;0.68;;;0.40;;
12308;SDS011;6217;48.150;17.142;2024-03-29T08:51:46;0.52;;;0.50;;
12308;SDS011;6217;48.150;17.142;2024-03-29T08:55:52;0.95;;;0.50;;
12308;SDS011;6217;48.150;17.142;2024-03-29T08:59:58;1.52;;;0.90;;
12308;SDS011;6217;48.150;17.142;2024-03-29T09:04:04;1.40;;;0.60;;
12308;SDS011;6217;48.150;17.142;2024-03-29T09:08:12;0.98;;;0.55;;
12308;SDS011;6217;48.150;17.142;2024-03-29T09:12:18;1.50;;;0.60;;
12308;SDS011;6217;48.150;17.142;2024-03-29T09:16:24;2.40;;;0.77;;
12308;SDS011;6217;48.150;17.142;2024-03-29T09:20:30;4.45;;;1.67;;
12308;SDS011;6217;48.150;17.142;2024-03-29T09:24:36;2.55;;;0.60;;
12308;SDS011;6217;48.150;17.142;2024-03-29T09:28:44;4.90;;;0.80;;
12308;SDS011;6217;48.150;17.142;2024-03-29T09:32:50;13.18;;;1.30;;
12308;SDS011;6217;48.150;17.142;2024-03-29T09:36:56;2.10;;;0.70;;
12308;SDS011;6217;48.150;17.142;2024-03-29T09:45:21;3.42;;;1.42;;
12308;SDS011;6217;48.150;17.142;2024-03-29T09:49:29;4.43;;;0.90;;
12308;SDS011;6217;48.150;17.142;2024-03-29T09:53:37;5.45;;;1.02;;
12308;SDS011;6217;48.150;17.142;2024-03-29T09:57:43;4.65;;;0.73;;
12308;SDS011;6217;48.150;17.142;2024-03-29T10:01:49;8.95;;;1.05;;
12308;SDS011;6217;48.150;17.142;2024-03-29T10:05:57;1.50;;;0.65;;
12308;SDS011;6217;48.150;17.142;2024-03-29T10:10:03;4.95;;;0.73;;
12308;SDS011;6217;48.150;17.142;2024-03-29T10:14:10;5.70;;;0.95;;
12308;SDS011;6217;48.150;17.142;2024-03-29T10:18:16;4.63;;;0.85;;
12308;SDS011;6217;48.150;17.142;2024-03-29T10:22:25;4.38;;;1.65;;
12308;SDS011;6217;48.150;17.142;2024-03-29T10:26:30;2.97;;;0.70;;
12308;SDS011;6217;48.150;17.142;2024-03-29T10:30:37;3.15;;;0.93;;
12308;SDS011;6217;48.150;17.142;2024-03-29T10:34:43;3.90;;;0.68;;
12308;SDS011;6217;48.150;17.142;2024-03-29T10:38:49;3.60;;;0.80;;
12308;SDS011;6217;48.150;17.142;2024-03-29T10:42:55;3.03;;;0.70;;
12308;SDS011;6217;48.150;17.142;2024-03-29T10:47:02;1.80;;;0.70;;
12308;SDS011;6217;48.150;17.142;2024-03-29T10:51:11;5.85;;;1.00;;
12308;SDS011;6217;48.150;17.142;2024-03-29T10:55:17;2.85;;;0.77;;
12308;SDS011;6217;48.150;17.142;2024-03-29T11:04:16;3.85;;;0.68;;
12308;SDS011;6217;48.150;17.142;2024-03-29T11:08:28;1.77;;;0.68;;
12308;SDS011;6217;48.150;17.142;2024-03-29T11:12:47;2.45;;;0.90;;
12308;SDS011;6217;48.150;17.142;2024-03-29T11:17:11;2.20;;;0.68;;
12308;SDS011;6217;48.150;17.142;2024-03-29T11:21:19;2.70;;;0.60;;
12308;SDS011;6217;48.150;17.142;2024-03-29T11:25:25;4.00;;;1.13;;
12308;SDS011;6217;48.150;17.142;2024-03-29T11:29:31;4.82;;;1.30;;
12308;SDS011;6217;48.150;17.142;2024-03-29T11:37:55;6.25;;;0.82;;
12308;SDS011;6217;48.150;17.142;2024-03-29T11:42:04;4.60;;;1.40;;
12308;SDS011;6217;48.150;17.142;2024-03-29T11:46:10;3.83;;;0.85;;
12308;SDS011;6217;48.150;17.142;2024-03-29T11:50:18;1.83;;;0.93;;
12308;SDS011;6217;48.150;17.142;2024-03-29T11:54:24;4.75;;;1.27;;
12308;SDS011;6217;48.150;17.142;2024-03-29T11:58:31;4.10;;;0.90;;
12308;SDS011;6217;48.150;17.142;2024-03-29T12:02:39;3.53;;;1.02;;
12308;SDS011;6217;48.150;17.142;2024-03-29T12:06:45;2.33;;;1.10;;
12308;SDS011;6217;48.150;17.142;2024-03-29T12:10:51;4.28;;;1.60;;
12308;SDS011;6217;48.150;17.142;2024-03-29T12:14:57;4.20;;;0.95;;
12308;SDS011;6217;48.150;17.142;2024-03-29T12:19:03;2.25;;;1.48;;
12308;SDS011;6217;48.150;17.142;2024-03-29T12:23:09;2.97;;;0.70;;
12308;SDS011;6217;48.150;17.142;2024-03-29T12:27:15;4.82;;;1.42;;
12308;SDS011;6217;48.150;17.142;2024-03-29T12:31:22;6.43;;;1.00;;
12308;SDS011;6217;48.150;17.142;2024-03-29T12:35:29;5.35;;;1.20;;
12308;SDS011;6217;48.150;17.142;2024-03-29T12:39:40;5.50;;;0.90;;
12308;SDS011;6217;48.150;17.142;2024-03-29T12:43:47;2.75;;;0.80;;
12308;SDS011;6217;48.150;17.142;2024-03-29T12:47:53;3.92;;;0.80;;
12308;SDS011;6217;48.150;17.142;2024-03-29T12:51:59;6.05;;;1.45;;
12308;SDS011;6217;48.150;17.142;2024-03-29T12:56:05;3.88;;;0.90;;
12308;SDS011;6217;48.150;17.142;2024-03-29T13:00:11;3.92;;;0.90;;
12308;SDS011;6217;48.150;17.142;2024-03-29T13:04:17;5.50;;;1.05;;
12308;SDS011;6217;48.150;17.142;2024-03-29T13:08:23;3.00;;;0.93;;
12308;SDS011;6217;48.150;17.142;2024-03-29T13:12:29;4.80;;;1.00;;
12308;SDS011;6217;48.150;17.142;2024-03-29T13:16:35;5.25;;;1.08;;
12308;SDS011;6217;48.150;17.142;2024-03-29T13:20:41;7.25;;;1.55;;
12308;SDS011;6217;48.150;17.142;2024-03-29T13:24:48;6.00;;;1.10;;
12308;SDS011;6217;48.150;17.142;2024-03-29T13:28:53;4.30;;;0.80;;
12308;SDS011;6217;48.150;17.142;2024-03-29T13:32:59;5.22;;;1.00;;
12308;SDS011;6217;48.150;17.142;2024-03-29T13:37:05;3.40;;;0.73;;
12308;SDS011;6217;48.150;17.142;2024-03-29T13:41:11;2.67;;;0.77;;
12308;SDS011;6217;48.150;17.142;2024-03-29T13:45:20;1.75;;;0.60;;
12308;SDS011;6217;48.150;17.142;2024-03-29T13:49:30;2.45;;;0.98;;
12308;SDS011;6217;48.150;17.142;2024-03-29T13:53:37;3.78;;;0.80;;
12308;SDS011;6217;48.150;17.142;2024-03-29T13:57:46;5.18;;;0.90;;
12308;SDS011;6217;48.150;17.142;2024-03-29T14:01:53;2.38;;;0.50;;
12308;SDS011;6217;48.150;17.142;2024-03-29T14:05:59;4.25;;;0.73;;
12308;SDS011;6217;48.150;17.142;2024-03-29T14:10:05;5.38;;;0.63;;
12308;SDS011;6217;48.150;17.142;2024-03-29T14:14:12;6.00;;;0.90;;
12308;SDS011;6217;48.150;17.142;2024-03-29T14:18:18;1.35;;;0.70;;
12308;SDS011;6217;48.150;17.142;2024-03-29T14:22:24;3.25;;;0.90;;
12308;SDS011;6217;48.150;17.142;2024-03-29T14:26:30;3.33;;;0.60;;
12308;SDS011;6217;48.150;17.142;2024-03-29T14:30:36;4.22;;;0.80;;
12308;SDS011;6217;48.150;17.142;2024-03-29T14:34:42;3.30;;;0.93;;
12308;SDS011;6217;48.150;17.142;2024-03-29T14:38:51;4.38;;;0.80;;
12308;SDS011;6217;48.150;17.142;2024-03-29T14:42:57;4.82;;;1.65;;
12308;SDS011;6217;48.150;17.142;2024-03-29T14:47:03;4.70;;;1.55;;
12308;SDS011;6217;48.150;17.142;2024-03-29T14:51:11;3.67;;;0.60;;
12308;SDS011;6217;48.150;17.142;2024-03-29T14:55:17;3.75;;;0.82;;
12308;SDS011;6217;48.150;17.142;2024-03-29T14:59:23;3.83;;;0.82;;
12308;SDS011;6217;48.150;17.142;2024-03-29T15:03:29;6.60;;;1.35;;
12308;SDS011;6217;48.150;17.142;2024-03-29T15:07:35;8.18;;;1.40;;
12308;SDS011;6217;48.150;17.142;2024-03-29T15:11:41;3.85;;;0.80;;
12308;SDS011;6217;48.150;17.142;2024-03-29T15:15:56;4.35;;;1.65;;
12308;SDS011;6217;48.150;17.142;2024-03-29T15:20:03;5.70;;;0.68;;
12308;SDS011;6217;48.150;17.142;2024-03-29T15:28:21;3.85;;;1.13;;
12308;SDS011;6217;48.150;17.142;2024-03-29T15:32:48;7.18;;;1.23;;
12308;SDS011;6217;48.150;17.142;2024-03-29T15:36:54;3.92;;;0.82;;
12308;SDS011;6217;48.150;17.142;2024-03-29T15:41:00;2.72;;;1.13;;
12308;SDS011;6217;48.150;17.142;2024-03-29T15:45:06;9.23;;;1.38;;
12308;SDS011;6217;48.150;17.142;2024-03-29T15:49:13;2.88;;;0.90;;
12308;SDS011;6217;48.150;17.142;2024-03-29T15:53:19;5.75;;;1.58;;
12308;SDS011;6217;48.150;17.142;2024-03-29T15:57:25;6.20;;;2.83;;
12308;SDS011;6217;48.150;17.142;2024-03-29T16:01:31;10.75;;;1.30;;
12308;SDS011;6217;48.150;17.142;2024-03-29T16:05:39;4.78;;;1.40;;
12308;SDS011;6217;48.150;17.142;2024-03-29T16:09:52;5.90;;;1.10;;
12308;SDS011;6217;48.150;17.142;2024-03-29T16:13:58;5.18;;;1.10;;
12308;SDS011;6217;48.150;17.142;2024-03-29T16:18:04;11.32;;;1.48;;
12308;SDS011;6217;48.150;17.142;2024-03-29T16:22:10;6.05;;;1.23;;
12308;SDS011;6217;48.150;17.142;2024-03-29T16:26:16;4.32;;;1.27;;
12308;SDS011;6217;48.150;17.142;2024-03-29T16:30:22;7.68;;;1.58;;
12308;SDS011;6217;48.150;17.142;2024-03-29T16:34:28;7.30;;;1.10;;
12308;SDS011;6217;48.150;17.142;2024-03-29T16:38:34;4.80;;;1.17;;
12308;SDS011;6217;48.150;17.142;2024-03-29T16:42:39;6.75;;;1.77;;
12308;SDS011;6217;48.150;17.142;2024-03-29T16:46:45;7.38;;;1.70;;
12308;SDS011;6217;48.150;17.142;2024-03-29T16:50:51;5.05;;;1.20;;
12308;SDS011;6217;48.150;17.142;2024-03-29T16:54:57;9.35;;;1.20;;
12308;SDS011;6217;48.150;17.142;2024-03-29T16:59:03;9.50;;;1.10;;
12308;SDS011;6217;48.150;17.142;2024-03-29T17:03:11;7.13;;;1.67;;
12308;SDS011;6217;48.150;17.142;2024-03-29T17:07:17;5.45;;;1.00;;
12308;SDS011;6217;48.150;17.142;2024-03-29T17:11:23;6.30;;;1.30;;
12308;SDS011;6217;48.150;17.142;2024-03-29T17:15:29;6.55;;;1.10;;
12308;SDS011;6217;48.150;17.142;2024-03-29T17:19:36;5.82;;;1.00;;
12308;SDS011;6217;48.150;17.142;2024-03-29T17:23:42;11.90;;;1.55;;
12308;SDS011;6217;48.150;17.142;2024-03-29T17:27:48;6.70;;;1.02;;
12308;SDS011;6217;48.150;17.142;2024-03-29T17:31:54;7.30;;;1.98;;
12308;SDS011;6217;48.150;17.142;2024-03-29T17:36:00;6.20;;;1.52;;
12308;SDS011;6217;48.150;17.142;2024-03-29T17:40:06;9.30;;;1.58;;
12308;SDS011;6217;48.150;17.142;2024-03-29T17:44:12;7.97;;;1.58;;
12308;SDS011;6217;48.150;17.142;2024-03-29T17:48:19;11.68;;;2.08;;
12308;SDS011;6217;48.150;17.142;2024-03-29T17:52:24;9.65;;;2.05;;
12308;SDS011;6217;48.150;17.142;2024-03-29T17:56:31;10.02;;;2.53;;
12308;SDS011;6217;48.150;17.142;2024-03-29T18:00:37;4.30;;;1.15;;
12308;SDS011;6217;48.150;17.142;2024-03-29T18:04:43;6.88;;;1.10;;
12308;SDS011;6217;48.150;17.142;2024-03-29T18:08:48;10.27;;;1.27;;
12308;SDS011;6217;48.150;17.142;2024-03-29T18:12:55;7.13;;;1.30;;
12308;SDS011;6217;48.150;17.142;2024-03-29T18:17:00;5.03;;;1.55;;
12308;SDS011;6217;48.150;17.142;2024-03-29T18:21:06;7.50;;;1.38;;
12308;SDS011;6217;48.150;17.142;2024-03-29T18:25:12;10.15;;;1.60;;
12308;SDS011;6217;48.150;17.142;2024-03-29T18:29:18;11.25;;;2.45;;
12308;SDS011;6217;48.150;17.142;2024-03-29T18:33:24;9.32;;;2.08;;
12308;SDS011;6217;48.150;17.142;2024-03-29T18:37:30;10.70;;;1.38;;
12308;SDS011;6217;48.150;17.142;2024-03-29T18:41:36;9.02;;;1.20;;
12308;SDS011;6217;48.150;17.142;2024-03-29T18:45:43;9.43;;;1.48;;
12308;SDS011;6217;48.150;17.142;2024-03-29T18:49:49;8.30;;;1.63;;
12308;SDS011;6217;48.150;17.142;2024-03-29T18:53:55;8.48;;;1.70;;
12308;SDS011;6217;48.150;17.142;2024-03-29T18:58:00;9.93;;;1.75;;
12308;SDS011;6217;48.150;17.142;2024-03-29T19:02:06;9.75;;;2.20;;
12308;SDS011;6217;48.150;17.142;2024-03-29T19:06:13;24.40;;;2.10;;
12308;SDS011;6217;48.150;17.142;2024-03-29T19:10:21;9.88;;;1.42;;
12308;SDS011;6217;48.150;17.142;2024-03-29T19:14:27;7.80;;;1.75;;
12308;SDS011;6217;48.150;17.142;2024-03-29T19:18:34;6.05;;;1.27;;
12308;SDS011;6217;48.150;17.142;2024-03-29T19:22:39;9.65;;;1.55;;
12308;SDS011;6217;48.150;17.142;2024-03-29T19:26:46;8.23;;;1.20;;
12308;SDS011;6217;48.150;17.142;2024-03-29T19:30:55;6.53;;;2.15;;
12308;SDS011;6217;48.150;17.142;2024-03-29T19:35:01;14.32;;;2.42;;
12308;SDS011;6217;48.150;17.142;2024-03-29T19:39:07;6.88;;;1.90;;
12308;SDS011;6217;48.150;17.142;2024-03-29T19:43:15;6.05;;;1.40;;
12308;SDS011;6217;48.150;17.142;2024-03-29T19:47:21;17.02;;;2.45;;
12308;SDS011;6217;48.150;17.142;2024-03-29T19:51:29;13.38;;;2.42;;
12308;SDS011;6217;48.150;17.142;2024-03-29T19:55:35;11.13;;;1.70;;
12308;SDS011;6217;48.150;17.142;2024-03-29T19:59:41;8.10;;;1.27;;
12308;SDS011;6217;48.150;17.142;2024-03-29T20:03:47;5.95;;;1.17;;
12308;SDS011;6217;48.150;17.142;2024-03-29T20:07:53;17.70;;;2.78;;
12308;SDS011;6217;48.150;17.142;2024-03-29T20:11:59;11.40;;;2.33;;
12308;SDS011;6217;48.150;17.142;2024-03-29T20:16:06;21.75;;;2.20;;
12308;SDS011;6217;48.150;17.142;2024-03-29T20:20:13;16.95;;;3.55;;
12308;SDS011;6217;48.150;17.142;2024-03-29T20:24:19;17.58;;;1.65;;
12308;SDS011;6217;48.150;17.142;2024-03-29T20:28:25;8.50;;;2.05;;
12308;SDS011;6217;48.150;17.142;2024-03-29T20:32:34;10.30;;;1.67;;
12308;SDS011;6217;48.150;17.142;2024-03-29T20:36:39;7.60;;;1.42;;
12308;SDS011;6217;48.150;17.142;2024-03-29T20:40:47;19.15;;;2.03;;
12308;SDS011;6217;48.150;17.142;2024-03-29T20:44:54;12.35;;;2.08;;
12308;SDS011;6217;48.150;17.142;2024-03-29T20:49:01;17.83;;;1.65;;
12308;SDS011;6217;48.150;17.142;2024-03-29T20:53:08;12.35;;;2.03;;
12308;SDS011;6217;48.150;17.142;2024-03-29T20:57:14;17.70;;;2.65;;
12308;SDS011;6217;48.150;17.142;2024-03-29T21:01:20;32.50;;;3.08;;
12308;SDS011;6217;48.150;17.142;2024-03-29T21:05:44;16.33;;;1.67;;
12308;SDS011;6217;48.150;17.142;2024-03-29T21:09:49;13.85;;;2.47;;
12308;SDS011;6217;48.150;17.142;2024-03-29T21:13:55;12.73;;;3.33;;
12308;SDS011;6217;48.150;17.142;2024-03-29T21:18:01;17.45;;;2.85;;
12308;SDS011;6217;48.150;17.142;2024-03-29T21:22:09;14.45;;;2.78;;
12308;SDS011;6217;48.150;17.142;2024-03-29T21:26:14;19.10;;;2.58;;
12308;SDS011;6217;48.150;17.142;2024-03-29T21:30:21;28.73;;;4.18;;
12308;SDS011;6217;48.150;17.142;2024-03-29T21:34:27;21.48;;;2.40;;
12308;SDS011;6217;48.150;17.142;2024-03-29T21:38:33;19.98;;;1.88;;
12308;SDS011;6217;48.150;17.142;2024-03-29T21:42:39;26.13;;;3.67;;
12308;SDS011;6217;48.150;17.142;2024-03-29T21:46:45;12.75;;;2.10;;
12308;SDS011;6217;48.150;17.142;2024-03-29T21:50:51;23.27;;;2.83;;
12308;SDS011;6217;48.150;17.142;2024-03-29T21:54:58;28.27;;;3.63;;
12308;SDS011;6217;48.150;17.142;2024-03-29T21:59:04;22.25;;;3.40;;
12308;SDS011;6217;48.150;17.142;2024-03-29T22:03:10;20.27;;;2.47;;
12308;SDS011;6217;48.150;17.142;2024-03-29T22:07:18;14.40;;;2.30;;
12308;SDS011;6217;48.150;17.142;2024-03-29T22:11:24;16.48;;;2.60;;
12308;SDS011;6217;48.150;17.142;2024-03-29T22:15:30;25.25;;;2.30;;
12308;SDS011;6217;48.150;17.142;2024-03-29T22:19:36;15.82;;;2.20;;
12308;SDS011;6217;48.150;17.142;2024-03-29T22:23:42;19.73;;;2.28;;
12308;SDS011;6217;48.150;17.142;2024-03-29T22:27:48;25.58;;;3.75;;
12308;SDS011;6217;48.150;17.142;2024-03-29T22:31:54;30.75;;;5.25;;
12308;SDS011;6217;48.150;17.142;2024-03-29T22:36:00;18.42;;;3.28;;
12308;SDS011;6217;48.150;17.142;2024-03-29T22:40:07;27.70;;;3.90;;
12308;SDS011;6217;48.150;17.142;2024-03-29T22:44:14;24.52;;;5.28;;
12308;SDS011;6217;48.150;17.142;2024-03-29T22:48:20;32.33;;;3.83;;
12308;SDS011;6217;48.150;17.142;2024-03-29T22:52:26;20.35;;;2.47;;
12308;SDS011;6217;48.150;17.142;2024-03-29T22:56:31;23.75;;;3.80;;
12308;SDS011;6217;48.150;17.142;2024-03-29T23:00:37;21.25;;;2.70;;
12308;SDS011;6217;48.150;17.142;2024-03-29T23:04:44;17.90;;;2.25;;
12308;SDS011;6217;48.150;17.142;2024-03-29T23:08:50;14.30;;;3.13;;
12308;SDS011;6217;48.150;17.142;2024-03-29T23:12:56;20.35;;;4.40;;
12308;SDS011;6217;48.150;17.142;2024-03-29T23:17:02;21.15;;;3.25;;
12308;SDS011;6217;48.150;17.142;2024-03-29T23:21:08;13.93;;;2.47;;
12308;SDS011;6217;48.150;17.142;2024-03-29T23:25:14;18.33;;;3.78;;
12308;SDS011;6217;48.150;17.142;2024-03-29T23:29:20;12.95;;;3.03;;
12308;SDS011;6217;48.150;17.142;2024-03-29T23:33:26;20.70;;;4.38;;
12308;SDS011;6217;48.150;17.142;2024-03-29T23:37:32;11.57;;;2.75;;
12308;SDS011;6217;48.150;17.142;2024-03-29T23:41:38;28.63;;;5.15;;
12308;SDS011;6217;48.150;17.142;2024-03-29T23:45:44;13.25;;;2.97;;
12308;SDS011;6217;48.150;17.142;2024-03-29T23:49:50;27.35;;;4.55;;
12308;SDS011;6217;48.150;17.142;2024-03-29T23:53:57;12.45;;;3.83;;
12308;SDS011;6217;48.150;17.142;2024-03-29T23:58:03;12.55;;;3.00;;
